Time,TemperatureF,DewpointF,PressureIn,WindDirection,WindDirectionDegrees,WindSpeedMPH,WindSpeedGustMPH,Humidity,HourlyPrecipIn,Conditions,Clouds,dailyrainin,SoftwareType,DateUTC
2013-06-23 00:01:00,63.9,60.0,30.31,SE,125,0.0,0.0,86,0.00,,,0.00,weatherlink.com 1.10,2013-06-23 04:01:00,
2013-06-23 00:16:00,63.9,59.0,30.32,SE,125,0.0,1.0,85,0.00,,,0.00,weatherlink.com 1.10,2013-06-23 04:16:00,
2013-06-23 00:31:00,63.5,59.0,30.32,SE,125,0.0,0.0,86,0.00,,,0.00,weatherlink.com 1.10,2013-06-23 04:31:00,
2013-06-23 00:46:00,63.2,59.0,30.32,SE,125,0.0,0.0,86,0.00,,,0.00,weatherlink.com 1.10,2013-06-23 04:46:00,
2013-06-23 01:01:00,62.4,59.0,30.31,SE,125,0.0,0.0,87,0.00,,,0.00,weatherlink.com 1.10,2013-06-23 05:01:00,
2013-06-23 01:16:00,62.2,59.0,30.31,SE,125,0.0,0.0,88,0.00,,,0.00,weatherlink.com 1.10,2013-06-23 05:16:00,
2013-06-23 01:31:00,63.0,59.0,30.30,ESE,119,1.0,3.0,86,0.00,,,0.00,weatherlink.com 1.10,2013-06-23 05:31:00,
2013-06-23 01:46:00,62.3,58.0,30.29,ESE,119,0.0,0.0,87,0.00,,,0.00,weatherlink.com 1.10,2013-06-23 05:46:00,
2013-06-23 02:01:00,60.9,58.0,30.30,ESE,119,0.0,0.0,89,0.00,,,0.00,weatherlink.com 1.10,2013-06-23 06:01:00,
2013-06-23 02:16:00,60.1,58.0,30.30,ESE,119,0.0,0.0,91,0.00,,,0.00,weatherlink.com 1.10,2013-06-23 06:16:00,
2013-06-23 02:31:00,59.6,58.0,30.29,ESE,119,0.0,0.0,93,0.00,,,0.00,weatherlink.com 1.10,2013-06-23 06:31:00,
2013-06-23 02:46:00,59.1,57.0,30.29,ESE,119,0.0,0.0,93,0.00,,,0.00,weatherlink.com 1.10,2013-06-23 06:46:00,
2013-06-23 03:01:00,58.5,57.0,30.29,ESE,119,0.0,0.0,93,0.00,,,0.00,weatherlink.com 1.10,2013-06-23 07:01:00,
2013-06-23 03:16:00,58.3,57.0,30.29,ESE,119,0.0,0.0,94,0.00,,,0.00,weatherlink.com 1.10,2013-06-23 07:16:00,
2013-06-23 03:31:00,58.0,56.0,30.28,ESE,119,0.0,0.0,94,0.00,,,0.00,weatherlink.com 1.10,2013-06-23 07:31:00,
2013-06-23 03:46:00,57.9,57.0,30.28,ESE,119,0.0,0.0,95,0.00,,,0.00,weatherlink.com 1.10,2013-06-23 07:46:00,
2013-06-23 04:01:00,58.1,57.0,30.27,ESE,119,0.0,0.0,96,0.00,,,0.00,weatherlink.com 1.10,2013-06-23 08:01:00,
2013-06-23 04:16:00,58.4,57.0,30.28,ESE,119,0.0,0.0,96,0.00,,,0.00,weatherlink.com 1.10,2013-06-23 08:16:00,
2013-06-23 04:31:00,58.4,57.0,30.27,ESE,119,0.0,0.0,96,0.00,,,0.00,weatherlink.com 1.10,2013-06-23 08:31:00,
2013-06-23 04:46:00,59.6,59.0,30.27,ESE,119,0.0,0.0,97,0.00,,,0.00,weatherlink.com 1.10,2013-06-23 08:46:00,
2013-06-23 05:01:00,59.4,58.0,30.28,NNE,17,0.0,0.0,96,0.00,,,0.00,weatherlink.com 1.10,2013-06-23 09:01:00,
2013-06-23 05:16:00,59.1,58.0,30.29,NNE,17,0.0,0.0,96,0.00,,,0.00,weatherlink.com 1.10,2013-06-23 09:16:00,
2013-06-23 05:31:00,58.9,58.0,30.29,NNE,17,0.0,0.0,96,0.00,,,0.00,weatherlink.com 1.10,2013-06-23 09:31:00,
2013-06-23 05:46:00,59.9,59.0,30.30,ESE,123,0.0,3.0,97,0.00,,,0.00,weatherlink.com 1.10,2013-06-23 09:46:00,
2013-06-23 06:01:00,60.2,59.0,30.30,SE,138,3.0,3.0,96,0.00,,,0.00,weatherlink.com 1.10,2013-06-23 10:01:00,
2013-06-23 06:16:00,60.8,60.0,30.30,SE,133,0.0,3.0,96,0.00,,,0.00,weatherlink.com 1.10,2013-06-23 10:16:00,
2013-06-23 06:31:00,60.7,59.0,30.30,SE,146,0.0,0.0,95,0.00,,,0.00,weatherlink.com 1.10,2013-06-23 10:31:00,
2013-06-23 06:46:00,60.3,59.0,30.31,SE,146,0.0,0.0,95,0.00,,,0.00,weatherlink.com 1.10,2013-06-23 10:46:00,
2013-06-23 07:01:00,60.1,59.0,30.31,SE,146,0.0,0.0,95,0.00,,,0.00,weatherlink.com 1.10,2013-06-23 11:01:00,
2013-06-23 07:16:00,59.9,59.0,30.32,SE,146,0.0,0.0,96,0.00,,,0.00,weatherlink.com 1.10,2013-06-23 11:16:00,
2013-06-23 07:31:00,60.3,59.0,30.32,SE,146,0.0,0.0,96,0.00,,,0.00,weatherlink.com 1.10,2013-06-23 11:31:00,
2013-06-23 07:46:00,61.1,60.0,30.33,SE,146,0.0,0.0,97,0.00,,,0.00,weatherlink.com 1.10,2013-06-23 11:46:00,
2013-06-23 08:02:00,62.3,62.0,30.33,SE,125,0.0,3.0,97,0.00,,,0.00,weatherlink.com 1.10,2013-06-23 12:02:00,
2013-06-23 08:17:00,65.1,62.0,30.34,East,90,2.0,5.0,90,0.00,,,0.00,weatherlink.com 1.10,2013-06-23 12:17:00,
2013-06-23 08:32:00,66.4,63.0,30.34,ESE,106,0.0,2.0,87,0.00,,,0.00,weatherlink.com 1.10,2013-06-23 12:32:00,
2013-06-23 08:47:00,67.9,63.0,30.34,ESE,103,0.0,1.0,84,0.00,,,0.00,weatherlink.com 1.10,2013-06-23 12:47:00,
2013-06-23 09:02:00,69.0,62.0,30.34,SSE,148,0.0,5.0,78,0.00,,,0.00,weatherlink.com 1.10,2013-06-23 13:02:00,
2013-06-23 09:17:00,69.3,62.0,30.34,ESE,105,0.0,9.0,77,0.00,,,0.00,weatherlink.com 1.10,2013-06-23 13:17:00,
2013-06-23 09:32:00,70.2,62.0,30.34,East,80,1.0,9.0,74,0.00,,,0.00,weatherlink.com 1.10,2013-06-23 13:32:00,
2013-06-23 09:47:00,71.8,63.0,30.34,West,259,3.0,7.0,73,0.00,,,0.00,weatherlink.com 1.10,2013-06-23 13:47:00,
2013-06-23 10:02:00,72.5,61.0,30.34,SE,128,0.0,3.0,68,0.00,,,0.00,weatherlink.com 1.10,2013-06-23 14:02:00,
2013-06-23 10:17:00,72.8,61.0,30.34,WNW,296,3.0,8.0,67,0.00,,,0.00,weatherlink.com 1.10,2013-06-23 14:17:00,
2013-06-23 10:32:00,72.1,61.0,30.34,NE,36,0.0,8.0,68,0.00,,,0.00,weatherlink.com 1.10,2013-06-23 14:32:00,
2013-06-23 10:47:00,72.2,60.0,30.34,ENE,58,0.0,12.0,66,0.00,,,0.00,weatherlink.com 1.10,2013-06-23 14:47:00,
2013-06-23 11:02:00,73.1,61.0,30.34,NNE,33,4.0,7.0,66,0.00,,,0.00,weatherlink.com 1.10,2013-06-23 15:02:00,
2013-06-23 11:17:00,73.1,61.0,30.35,NE,48,0.0,9.0,66,0.00,,,0.00,weatherlink.com 1.10,2013-06-23 15:17:00,
2013-06-23 11:32:00,73.4,61.0,30.35,South,179,0.0,4.0,65,0.00,,,0.00,weatherlink.com 1.10,2013-06-23 15:32:00,
2013-06-23 11:47:00,74.0,62.0,30.35,WNW,286,1.0,3.0,67,0.00,,,0.00,weatherlink.com 1.10,2013-06-23 15:47:00,
2013-06-23 12:02:00,74.3,61.0,30.34,WSW,255,3.0,5.0,64,0.00,,,0.00,weatherlink.com 1.10,2013-06-23 16:02:00,
2013-06-23 12:17:00,74.6,61.0,30.34,East,92,1.0,7.0,63,0.00,,,0.00,weatherlink.com 1.10,2013-06-23 16:17:00,
2013-06-23 12:32:00,75.0,61.0,30.34,SE,134,1.0,5.0,61,0.00,,,0.00,weatherlink.com 1.10,2013-06-23 16:32:00,
2013-06-23 12:47:00,76.2,60.0,30.33,WNW,292,0.0,5.0,58,0.00,,,0.00,weatherlink.com 1.10,2013-06-23 16:47:00,
2013-06-23 13:02:00,76.2,60.0,30.33,WNW,297,0.0,5.0,57,0.00,,,0.00,weatherlink.com 1.10,2013-06-23 17:02:00,
2013-06-23 13:17:00,76.9,61.0,30.33,North,360,0.0,2.0,59,0.00,,,0.00,weatherlink.com 1.10,2013-06-23 17:17:00,
2013-06-23 13:32:00,76.2,58.0,30.32,SW,234,2.0,6.0,54,0.00,,,0.00,weatherlink.com 1.10,2013-06-23 17:32:00,
2013-06-23 13:47:00,76.8,58.0,30.31,NNW,342,0.0,4.0,52,0.00,,,0.00,weatherlink.com 1.10,2013-06-23 17:47:00,
2013-06-23 14:02:00,76.8,60.0,30.31,ENE,77,0.0,5.0,56,0.00,,,0.00,weatherlink.com 1.10,2013-06-23 18:02:00,
2013-06-23 14:17:00,77.7,58.0,30.31,ESE,115,4.0,7.0,50,0.00,,,0.00,weatherlink.com 1.10,2013-06-23 18:17:00,
2013-06-23 14:32:00,76.5,56.0,30.30,NE,55,0.0,10.0,49,0.00,,,0.00,weatherlink.com 1.10,2013-06-23 18:32:00,
2013-06-23 14:47:00,77.4,57.0,30.29,North,5,1.0,4.0,49,0.00,,,0.00,weatherlink.com 1.10,2013-06-23 18:47:00,
2013-06-23 15:02:00,78.0,58.0,30.29,SE,130,0.0,8.0,50,0.00,,,0.00,weatherlink.com 1.10,2013-06-23 19:02:00,
2013-06-23 15:17:00,78.5,59.0,30.28,South,190,1.0,8.0,51,0.00,,,0.00,weatherlink.com 1.10,2013-06-23 19:17:00,
2013-06-23 15:32:00,78.6,58.0,30.28,WNW,294,3.0,4.0,49,0.00,,,0.00,weatherlink.com 1.10,2013-06-23 19:32:00,
2013-06-23 15:47:00,77.8,58.0,30.27,ENE,67,0.0,4.0,51,0.00,,,0.00,weatherlink.com 1.10,2013-06-23 19:47:00,
2013-06-23 16:02:00,79.6,60.0,30.27,East,90,3.0,3.0,51,0.00,,,0.00,weatherlink.com 1.10,2013-06-23 20:02:00,
2013-06-23 16:17:00,77.4,58.0,30.27,East,98,6.0,8.0,52,0.00,,,0.00,weatherlink.com 1.10,2013-06-23 20:17:00,
2013-06-23 16:32:00,77.0,61.0,30.27,WNW,290,0.0,2.0,58,0.00,,,0.00,weatherlink.com 1.10,2013-06-23 20:32:00,
2013-06-23 16:47:00,79.5,61.0,30.26,SE,137,1.0,4.0,53,0.00,,,0.00,weatherlink.com 1.10,2013-06-23 20:47:00,
2013-06-23 17:02:00,78.5,59.0,30.27,WSW,254,0.0,5.0,52,0.00,,,0.00,weatherlink.com 1.10,2013-06-23 21:02:00,
2013-06-23 17:17:00,78.2,60.0,30.27,WSW,254,0.0,2.0,53,0.00,,,0.00,weatherlink.com 1.10,2013-06-23 21:17:00,
2013-06-23 17:32:00,77.2,61.0,30.27,ESE,117,0.0,2.0,57,0.00,,,0.00,weatherlink.com 1.10,2013-06-23 21:32:00,
2013-06-23 17:47:00,77.4,62.0,30.26,ENE,74,0.0,2.0,59,0.00,,,0.00,weatherlink.com 1.10,2013-06-23 21:47:00,
2013-06-23 18:02:00,76.9,59.0,30.26,ENE,76,0.0,1.0,55,0.00,,,0.00,weatherlink.com 1.10,2013-06-23 22:02:00,
2013-06-23 18:18:00,76.9,63.0,30.26,East,100,0.0,5.0,62,0.00,,,0.00,weatherlink.com 1.10,2013-06-23 22:18:00,
2013-06-23 18:33:00,77.8,61.0,30.26,South,170,0.0,1.0,57,0.00,,,0.00,weatherlink.com 1.10,2013-06-23 22:33:00,
2013-06-23 18:48:00,77.7,60.0,30.26,East,94,0.0,7.0,54,0.00,,,0.00,weatherlink.com 1.10,2013-06-23 22:48:00,
2013-06-23 19:03:00,77.9,60.0,30.26,WSW,256,0.0,3.0,55,0.00,,,0.00,weatherlink.com 1.10,2013-06-23 23:03:00,
2013-06-23 19:18:00,77.3,61.0,30.25,ESE,112,0.0,0.0,58,0.00,,,0.00,weatherlink.com 1.10,2013-06-23 23:18:00,
2013-06-23 19:33:00,75.8,61.0,30.25,ESE,112,0.0,0.0,61,0.00,,,0.00,weatherlink.com 1.10,2013-06-23 23:33:00,
2013-06-23 19:48:00,74.3,64.0,30.26,ESE,112,0.0,0.0,71,0.00,,,0.00,weatherlink.com 1.10,2013-06-23 23:48:00,
2013-06-23 20:03:00,72.7,64.0,30.26,ESE,112,0.0,0.0,74,0.00,,,0.00,weatherlink.com 1.10,2013-06-24 00:03:00,
2013-06-23 20:18:00,71.5,64.0,30.25,ESE,112,0.0,0.0,78,0.00,,,0.00,weatherlink.com 1.10,2013-06-24 00:18:00,
2013-06-23 20:33:00,70.9,64.0,30.26,ESE,112,0.0,0.0,79,0.00,,,0.00,weatherlink.com 1.10,2013-06-24 00:33:00,
2013-06-23 20:48:00,69.9,64.0,30.26,ESE,112,0.0,0.0,80,0.00,,,0.00,weatherlink.com 1.10,2013-06-24 00:48:00,
2013-06-23 21:03:00,68.9,63.0,30.26,ESE,112,0.0,0.0,82,0.00,,,0.00,weatherlink.com 1.10,2013-06-24 01:03:00,
2013-06-23 21:18:00,68.1,63.0,30.27,ESE,112,0.0,0.0,83,0.00,,,0.00,weatherlink.com 1.10,2013-06-24 01:18:00,
2013-06-23 21:33:00,67.3,62.0,30.27,ESE,112,0.0,0.0,84,0.00,,,0.00,weatherlink.com 1.10,2013-06-24 01:33:00,
2013-06-23 21:48:00,66.8,63.0,30.28,ESE,112,0.0,0.0,86,0.00,,,0.00,weatherlink.com 1.10,2013-06-24 01:48:00,
2013-06-23 22:03:00,66.3,62.0,30.28,ESE,112,0.0,0.0,86,0.00,,,0.00,weatherlink.com 1.10,2013-06-24 02:03:00,
2013-06-23 22:18:00,66.1,62.0,30.29,ESE,112,0.0,1.0,86,0.00,,,0.00,weatherlink.com 1.10,2013-06-24 02:18:00,
2013-06-23 22:33:00,66.8,63.0,30.30,ESE,112,0.0,0.0,86,0.00,,,0.00,weatherlink.com 1.10,2013-06-24 02:33:00,
2013-06-23 22:48:00,67.4,63.0,30.30,ESE,112,0.0,0.0,85,0.00,,,0.00,weatherlink.com 1.10,2013-06-24 02:48:00,
2013-06-23 23:03:00,67.4,62.0,30.30,ESE,112,0.0,2.0,84,0.00,,,0.00,weatherlink.com 1.10,2013-06-24 03:03:00,
2013-06-23 23:18:00,66.4,62.0,30.31,ESE,112,0.0,0.0,85,0.00,,,0.00,weatherlink.com 1.10,2013-06-24 03:18:00,
2013-06-23 23:33:00,65.8,62.0,30.31,ESE,112,0.0,1.0,86,0.00,,,0.00,weatherlink.com 1.10,2013-06-24 03:33:00,
2013-06-23 23:48:00,65.7,62.0,30.31,ESE,112,0.0,2.0,86,0.00,,,0.00,weatherlink.com 1.10,2013-06-24 03:48:00,